createdAt,value
2017-07-20T00:00:38.679Z,0
2017-07-20T00:01:47.881Z,0
2017-07-20T00:02:57.092Z,0
2017-07-20T00:04:07.095Z,0
2017-07-20T00:05:15.982Z,0
2017-07-20T00:06:25.195Z,0
2017-07-20T00:07:34.736Z,0
2017-07-20T00:08:44.597Z,0
2017-07-20T00:09:53.965Z,0
2017-07-20T00:11:03.499Z,0
2017-07-20T00:12:13.031Z,0
2017-07-20T00:13:22.565Z,0
2017-07-20T00:14:32.096Z,0
2017-07-20T00:15:41.060Z,0
2017-07-20T00:16:49.948Z,0
2017-07-20T00:17:59.489Z,0
2017-07-20T00:19:09.037Z,0
2017-07-20T00:20:18.573Z,0
2017-07-20T00:21:28.583Z,0
2017-07-20T00:22:37.797Z,0
2017-07-20T00:23:47.326Z,0
2017-07-20T00:24:56.536Z,0
2017-07-20T00:26:06.064Z,0
2017-07-20T00:27:15.013Z,0
2017-07-20T00:28:24.217Z,0
2017-07-20T00:29:33.744Z,0
2017-07-20T00:30:43.602Z,0
2017-07-20T00:31:52.819Z,0
2017-07-20T00:33:02.177Z,0
2017-07-20T00:34:11.395Z,0
2017-07-20T00:35:21.247Z,0
2017-07-20T00:36:30.455Z,0
2017-07-20T00:37:39.987Z,0
2017-07-20T00:38:49.401Z,0
2017-07-20T00:39:58.628Z,0
2017-07-20T00:41:08.163Z,0
2017-07-20T00:42:17.693Z,0
2017-07-20T00:43:27.230Z,0
2017-07-20T00:44:37.193Z,0
2017-07-20T00:45:46.079Z,0
2017-07-20T00:46:55.326Z,0
2017-07-20T00:48:04.537Z,0
2017-07-20T00:49:13.745Z,0
2017-07-20T00:50:23.103Z,0
2017-07-20T00:51:32.318Z,0
2017-07-20T00:52:41.206Z,0
2017-07-20T00:53:50.097Z,0
2017-07-20T00:54:59.630Z,0
2017-07-20T00:56:08.823Z,0
2017-07-20T00:57:18.038Z,0
2017-07-20T00:58:27.568Z,0
2017-07-20T00:59:37.102Z,0
2017-07-20T01:00:46.638Z,0
2017-07-20T01:01:56.008Z,0
2017-07-20T01:03:05.540Z,0
2017-07-20T01:04:14.748Z,0
2017-07-20T01:05:24.300Z,0
2017-07-20T01:06:33.840Z,0
2017-07-20T01:07:42.772Z,0
2017-07-20T01:08:51.978Z,0
2017-07-20T01:10:00.860Z,0
2017-07-20T01:11:10.717Z,0
2017-07-20T01:12:20.247Z,0
2017-07-20T01:13:29.889Z,0
2017-07-20T01:14:39.095Z,0
2017-07-20T01:15:48.625Z,0
2017-07-20T01:16:58.152Z,0
2017-07-20T01:18:07.362Z,0
2017-07-20T01:19:16.730Z,0
2017-07-20T01:20:25.942Z,0
2017-07-20T01:21:34.824Z,0
2017-07-20T01:22:43.712Z,0
2017-07-20T01:23:52.601Z,0
2017-07-20T01:25:02.237Z,0
2017-07-20T01:26:11.766Z,0
2017-07-20T01:27:20.648Z,0
2017-07-20T01:28:29.866Z,0
2017-07-20T01:29:39.075Z,0
2017-07-20T01:30:48.669Z,0
2017-07-20T01:31:58.524Z,0
2017-07-20T01:33:08.377Z,0
2017-07-20T01:34:17.913Z,0
2017-07-20T01:35:27.132Z,0
2017-07-20T01:36:36.929Z,0
2017-07-20T01:37:45.813Z,0
2017-07-20T01:38:55.022Z,0
2017-07-20T01:40:04.880Z,0
2017-07-20T01:41:14.412Z,0
2017-07-20T01:42:23.826Z,0
2017-07-20T01:43:33.368Z,0
2017-07-20T01:44:42.906Z,0
2017-07-20T01:45:52.447Z,0
2017-07-20T01:47:01.977Z,0
2017-07-20T01:48:11.558Z,0
2017-07-20T01:49:21.420Z,0
2017-07-20T01:50:30.634Z,0
2017-07-20T01:51:40.168Z,0
2017-07-20T01:52:50.026Z,0
2017-07-20T01:53:59.709Z,0
2017-07-20T01:55:09.293Z,0
2017-07-20T01:56:18.503Z,0
2017-07-20T01:57:28.032Z,0
2017-07-20T01:58:37.564Z,0
2017-07-20T01:59:46.831Z,0
2017-07-20T02:00:56.040Z,0
2017-07-20T02:02:05.257Z,0
2017-07-20T02:03:14.148Z,0
2017-07-20T02:04:24.022Z,0
2017-07-20T02:05:34.038Z,0
2017-07-20T02:06:43.567Z,0
2017-07-20T02:07:52.784Z,0
2017-07-20T02:09:02.644Z,0
2017-07-20T02:10:11.543Z,0
2017-07-20T02:11:21.237Z,0
2017-07-20T02:12:30.449Z,0
2017-07-20T02:13:39.659Z,0
2017-07-20T02:14:49.512Z,0
2017-07-20T02:15:58.729Z,0
2017-07-20T02:17:08.262Z,0
2017-07-20T02:18:17.795Z,0
2017-07-20T02:19:27.655Z,0
2017-07-20T02:20:36.866Z,0
2017-07-20T02:21:46.411Z,0
2017-07-20T02:22:55.629Z,0
2017-07-20T02:24:05.489Z,0
2017-07-20T02:25:14.706Z,0
2017-07-20T02:26:24.559Z,0
2017-07-20T02:27:34.097Z,0
2017-07-20T02:28:43.777Z,0
2017-07-20T02:29:53.000Z,0
2017-07-20T02:31:02.543Z,0
2017-07-20T02:32:12.410Z,0
2017-07-20T02:33:21.955Z,0
2017-07-20T02:34:32.214Z,0
2017-07-20T02:35:41.109Z,0
2017-07-20T02:36:50.315Z,0
2017-07-20T02:38:00.497Z,0
2017-07-20T02:39:10.031Z,0
2017-07-20T02:40:20.414Z,0
2017-07-20T02:41:30.270Z,0
2017-07-20T02:42:40.135Z,0
2017-07-20T02:43:50.634Z,0
2017-07-20T02:44:59.846Z,0
2017-07-20T02:46:09.704Z,0
2017-07-20T02:47:18.914Z,0
2017-07-20T02:48:28.128Z,0
2017-07-20T02:49:37.337Z,0
2017-07-20T02:50:47.194Z,0
2017-07-20T02:51:56.601Z,0
2017-07-20T02:53:06.458Z,0
2017-07-20T02:54:15.669Z,0
2017-07-20T02:55:25.535Z,0
2017-07-20T02:56:35.715Z,0
2017-07-20T02:57:45.569Z,4
2017-07-20T02:58:55.101Z,4
2017-07-20T03:00:03.986Z,4
2017-07-20T03:01:13.539Z,0
2017-07-20T03:02:23.077Z,4
2017-07-20T03:03:32.707Z,4
2017-07-20T03:04:41.915Z,8
2017-07-20T03:05:51.124Z,4
2017-07-20T03:07:00.335Z,8
2017-07-20T03:08:09.544Z,8
2017-07-20T03:09:19.227Z,8
2017-07-20T03:10:28.447Z,12
2017-07-20T03:11:38.300Z,16
2017-07-20T03:12:47.508Z,16
2017-07-20T03:13:58.010Z,16
2017-07-20T03:15:07.693Z,20
2017-07-20T03:16:16.581Z,24
2017-07-20T03:17:25.468Z,32
2017-07-20T03:18:34.681Z,32
2017-07-20T03:19:44.215Z,36
2017-07-20T03:20:53.899Z,44
2017-07-20T03:22:03.106Z,52
2017-07-20T03:23:12.319Z,56
2017-07-20T03:24:21.530Z,68
2017-07-20T03:25:31.389Z,72
2017-07-20T03:26:41.070Z,80
2017-07-20T03:27:51.250Z,88
2017-07-20T03:29:00.466Z,100
2017-07-20T03:30:10.011Z,116
2017-07-20T03:31:20.211Z,132
2017-07-20T03:32:29.791Z,164
2017-07-20T03:33:39.321Z,184
2017-07-20T03:34:48.874Z,204
2017-07-20T03:35:58.083Z,220
2017-07-20T03:37:08.273Z,240
2017-07-20T03:38:18.276Z,256
2017-07-20T03:39:27.163Z,272
2017-07-20T03:40:36.372Z,288
2017-07-20T03:41:45.259Z,308
2017-07-20T03:42:54.465Z,320
2017-07-20T03:44:04.149Z,316
2017-07-20T03:45:13.037Z,288
2017-07-20T03:46:22.577Z,256
2017-07-20T03:47:32.446Z,248
2017-07-20T03:48:41.977Z,256
2017-07-20T03:49:50.913Z,276
2017-07-20T03:50:59.798Z,296
2017-07-20T03:52:09.979Z,316
2017-07-20T03:53:19.510Z,328
2017-07-20T03:54:29.043Z,340
2017-07-20T03:55:39.152Z,356
2017-07-20T03:56:48.687Z,368
2017-07-20T03:57:57.582Z,380
2017-07-20T03:59:07.127Z,384
2017-07-20T04:00:16.659Z,380
2017-07-20T04:01:26.813Z,384
2017-07-20T04:02:36.344Z,392
2017-07-20T04:03:45.558Z,388
2017-07-20T04:04:55.454Z,388
2017-07-20T04:06:04.987Z,388
2017-07-20T04:07:14.349Z,384
2017-07-20T04:08:23.253Z,384
2017-07-20T04:09:33.434Z,384
2017-07-20T04:10:43.021Z,388
2017-07-20T04:11:52.231Z,404
2017-07-20T04:13:01.818Z,408
2017-07-20T04:14:11.672Z,408
2017-07-20T04:15:20.880Z,408
2017-07-20T04:16:30.735Z,408
2017-07-20T04:17:39.940Z,412
2017-07-20T04:18:49.200Z,408
2017-07-20T04:19:59.061Z,396
2017-07-20T04:21:08.913Z,388
2017-07-20T04:22:17.805Z,372
2017-07-20T04:23:26.696Z,356
2017-07-20T04:24:36.703Z,336
2017-07-20T04:25:45.915Z,312
2017-07-20T04:26:55.125Z,296
2017-07-20T04:28:04.543Z,284
2017-07-20T04:29:13.761Z,272
2017-07-20T04:30:23.117Z,276
2017-07-20T04:31:32.342Z,288
2017-07-20T04:32:41.885Z,312
2017-07-20T04:33:51.423Z,352
2017-07-20T04:35:00.308Z,400
2017-07-20T04:36:09.523Z,436
2017-07-20T04:37:18.733Z,360
2017-07-20T04:38:28.277Z,244
2017-07-20T04:39:37.489Z,248
2017-07-20T04:40:46.373Z,476
2017-07-20T04:41:55.368Z,616
2017-07-20T04:43:04.917Z,576
2017-07-20T04:44:13.800Z,468
2017-07-20T04:45:22.686Z,392
2017-07-20T04:46:32.220Z,540
2017-07-20T04:47:41.158Z,584
2017-07-20T04:48:50.689Z,668
2017-07-20T04:50:00.544Z,672
2017-07-20T04:51:09.754Z,504
2017-07-20T04:52:18.962Z,532
2017-07-20T04:53:28.221Z,516
2017-07-20T04:54:37.752Z,488
2017-07-20T04:55:47.287Z,448
2017-07-20T04:56:56.183Z,456
2017-07-20T04:58:05.721Z,672
2017-07-20T04:59:15.083Z,684
2017-07-20T05:00:24.307Z,724
2017-07-20T05:01:33.843Z,784
2017-07-20T05:02:43.065Z,988
2017-07-20T05:03:52.276Z,932
2017-07-20T05:05:01.838Z,1156
2017-07-20T05:06:11.051Z,1192
2017-07-20T05:07:20.917Z,1320
2017-07-20T05:08:30.139Z,1336
2017-07-20T05:09:39.680Z,1336
2017-07-20T05:10:48.671Z,1468
2017-07-20T05:11:57.776Z,1444
2017-07-20T05:13:07.635Z,1404
2017-07-20T05:14:17.292Z,1428
2017-07-20T05:15:26.270Z,1396
2017-07-20T05:16:35.637Z,1412
2017-07-20T05:17:45.628Z,1376
2017-07-20T05:18:54.943Z,1312
2017-07-20T05:20:04.307Z,1264
2017-07-20T05:21:14.272Z,1220
2017-07-20T05:22:23.652Z,1168
2017-07-20T05:23:32.722Z,1128
2017-07-20T05:24:42.382Z,1104
2017-07-20T05:25:51.728Z,1104
2017-07-20T05:27:01.026Z,1112
2017-07-20T05:28:10.328Z,1136
2017-07-20T05:29:19.319Z,1156
2017-07-20T05:30:29.149Z,1172
2017-07-20T05:31:39.008Z,1204
2017-07-20T05:32:48.357Z,1224
2017-07-20T05:33:58.043Z,1252
2017-07-20T05:35:07.701Z,1228
2017-07-20T05:36:16.754Z,1168
2017-07-20T05:37:26.094Z,1124
2017-07-20T05:38:35.431Z,1068
2017-07-20T05:39:45.130Z,1036
2017-07-20T05:40:54.467Z,1000
2017-07-20T05:42:04.172Z,1004
2017-07-20T05:43:13.840Z,1036
2017-07-20T05:44:23.529Z,1084
2017-07-20T05:45:32.837Z,1156
2017-07-20T05:46:42.188Z,1284
2017-07-20T05:47:52.037Z,1452
2017-07-20T05:49:01.361Z,1636
2017-07-20T05:50:11.032Z,1776
2017-07-20T05:51:20.685Z,1820
2017-07-20T05:52:29.975Z,1844
2017-07-20T05:53:39.250Z,1828
2017-07-20T05:54:48.570Z,2064
2017-07-20T05:55:57.562Z,1972
2017-07-20T05:57:06.847Z,1968
2017-07-20T05:58:16.540Z,1972
2017-07-20T05:59:25.997Z,1976
2017-07-20T06:00:34.991Z,2024
2017-07-20T06:01:44.345Z,2232
2017-07-20T06:02:53.284Z,2316
2017-07-20T06:04:03.142Z,2352
2017-07-20T06:05:13.211Z,2340
2017-07-20T06:06:22.426Z,2240
2017-07-20T06:07:31.967Z,2328
2017-07-20T06:08:41.821Z,2180
2017-07-20T06:09:51.748Z,1924
2017-07-20T06:11:01.433Z,2048
2017-07-20T06:12:10.967Z,2064
2017-07-20T06:13:20.512Z,1868
2017-07-20T06:14:29.719Z,1644
2017-07-20T06:15:38.932Z,1492
2017-07-20T06:16:48.516Z,1424
2017-07-20T06:17:57.403Z,1492
2017-07-20T06:19:07.262Z,1696
2017-07-20T06:20:16.477Z,1880
2017-07-20T06:21:26.351Z,2128
2017-07-20T06:22:36.035Z,2072
2017-07-20T06:23:45.909Z,1576
2017-07-20T06:24:55.446Z,1764
2017-07-20T06:26:04.993Z,1656
2017-07-20T06:27:15.184Z,1716
2017-07-20T06:28:24.521Z,1892
2017-07-20T06:29:34.055Z,2084
2017-07-20T06:30:43.266Z,2348
2017-07-20T06:31:52.802Z,2256
2017-07-20T06:33:02.984Z,1728
2017-07-20T06:34:12.671Z,1504
2017-07-20T06:35:21.895Z,1880
2017-07-20T06:36:30.796Z,1732
2017-07-20T06:37:40.023Z,1124
2017-07-20T06:38:49.561Z,1916
2017-07-20T06:39:59.157Z,2888
2017-07-20T06:41:09.026Z,2704
2017-07-20T06:42:18.572Z,836
2017-07-20T06:43:27.825Z,788
2017-07-20T06:44:37.042Z,2444
2017-07-20T06:45:46.635Z,2808
2017-07-20T06:46:55.520Z,744
2017-07-20T06:48:05.057Z,664
2017-07-20T06:49:14.272Z,1180
2017-07-20T06:50:23.844Z,1024
2017-07-20T06:51:33.777Z,684
2017-07-20T06:52:42.666Z,684
2017-07-20T06:53:52.854Z,740
2017-07-20T06:55:02.125Z,788
2017-07-20T06:56:11.666Z,1044
2017-07-20T06:57:21.198Z,1212
2017-07-20T06:58:30.083Z,1368
2017-07-20T06:59:39.627Z,1056
2017-07-20T07:00:49.163Z,736
2017-07-20T07:01:58.377Z,1380
2017-07-20T07:03:08.114Z,2184
2017-07-20T07:04:17.333Z,1952
2017-07-20T07:05:26.547Z,2132
2017-07-20T07:06:35.762Z,2752
2017-07-20T07:07:44.645Z,3312
2017-07-20T07:08:54.012Z,4344
2017-07-20T07:10:02.945Z,4668
2017-07-20T07:11:12.501Z,4344
2017-07-20T07:12:22.704Z,4448
2017-07-20T07:13:32.920Z,5264
2017-07-20T07:14:42.926Z,5912
2017-07-20T07:15:51.812Z,6392
2017-07-20T07:17:01.024Z,6344
2017-07-20T07:18:10.568Z,6180
2017-07-20T07:19:20.096Z,6136
2017-07-20T07:20:29.088Z,6068
2017-07-20T07:21:37.983Z,5684
2017-07-20T07:22:46.868Z,5356
2017-07-20T07:23:56.078Z,4664
2017-07-20T07:25:04.963Z,4132
2017-07-20T07:26:14.802Z,3876
2017-07-20T07:27:23.690Z,3796
2017-07-20T07:28:33.800Z,3660
2017-07-20T07:29:43.037Z,3644
2017-07-20T07:30:52.249Z,3988
2017-07-20T07:32:01.293Z,4500
2017-07-20T07:33:10.522Z,5304
2017-07-20T07:34:20.062Z,5704
2017-07-20T07:35:29.597Z,5568
2017-07-20T07:36:38.806Z,5816
2017-07-20T07:37:47.851Z,5996
2017-07-20T07:38:57.442Z,5968
2017-07-20T07:40:06.661Z,5928
2017-07-20T07:41:15.934Z,5996
2017-07-20T07:42:24.840Z,5928
2017-07-20T07:43:34.157Z,5720
2017-07-20T07:44:43.045Z,5660
2017-07-20T07:45:52.753Z,5656
2017-07-20T07:47:01.994Z,5820
2017-07-20T07:48:11.294Z,5796
2017-07-20T07:49:20.193Z,5592
2017-07-20T07:50:29.460Z,5492
2017-07-20T07:51:39.059Z,5680
2017-07-20T07:52:48.313Z,5672
2017-07-20T07:53:58.249Z,5608
2017-07-20T07:55:07.517Z,5548
2017-07-20T07:56:17.122Z,5444
2017-07-20T07:57:26.159Z,5392
2017-07-20T07:58:35.427Z,5200
2017-07-20T07:59:44.359Z,4828
2017-07-20T08:00:54.107Z,4276
2017-07-20T08:02:04.050Z,3616
2017-07-20T08:03:13.679Z,3076
2017-07-20T08:04:23.222Z,2772
2017-07-20T08:05:32.766Z,2572
2017-07-20T08:06:41.799Z,2416
2017-07-20T08:07:51.430Z,2220
2017-07-20T08:09:01.152Z,2140
2017-07-20T08:10:11.108Z,2176
2017-07-20T08:11:20.016Z,2356
2017-07-20T08:12:29.683Z,2576
2017-07-20T08:13:38.909Z,2780
2017-07-20T08:14:48.128Z,2820
2017-07-20T08:15:57.385Z,2796
2017-07-20T08:17:07.435Z,2856
2017-07-20T08:18:16.856Z,3012
2017-07-20T08:19:25.788Z,3236
2017-07-20T08:20:35.039Z,3404
2017-07-20T08:21:43.920Z,3604
2017-07-20T08:22:53.780Z,3844
2017-07-20T08:24:04.211Z,3948
2017-07-20T08:25:13.449Z,3920
2017-07-20T08:26:22.687Z,3892
2017-07-20T08:27:31.650Z,3976
2017-07-20T08:28:40.977Z,4024
2017-07-20T08:29:50.463Z,4088
2017-07-20T08:30:59.392Z,4184
2017-07-20T08:32:08.996Z,4348
2017-07-20T08:33:18.218Z,4536
2017-07-20T08:34:27.125Z,4688
2017-07-20T08:35:36.179Z,4712
2017-07-20T08:36:45.095Z,4588
2017-07-20T08:37:54.309Z,4592
2017-07-20T08:39:03.896Z,3556
2017-07-20T08:40:13.457Z,2792
2017-07-20T08:41:23.135Z,2252
2017-07-20T08:42:32.039Z,2004
2017-07-20T08:43:41.018Z,2196
2017-07-20T08:44:50.558Z,2212
2017-07-20T08:45:59.824Z,2340
2017-07-20T08:47:09.922Z,2620
2017-07-20T08:48:19.143Z,2676
2017-07-20T08:49:28.406Z,2712
2017-07-20T08:50:38.287Z,2736
2017-07-20T08:51:47.199Z,2484
2017-07-20T08:52:56.585Z,2504
2017-07-20T08:54:05.814Z,2892
2017-07-20T08:55:15.671Z,3068
2017-07-20T08:56:25.622Z,3204
2017-07-20T08:57:34.833Z,3364
2017-07-20T08:58:43.871Z,3568
2017-07-20T08:59:53.096Z,3660
2017-07-20T09:01:02.644Z,3780
2017-07-20T09:02:12.536Z,4144
2017-07-20T09:03:21.441Z,4368
2017-07-20T09:04:31.917Z,4648
2017-07-20T09:05:41.735Z,4908
2017-07-20T09:06:51.601Z,4900
2017-07-20T09:08:00.819Z,4360
2017-07-20T09:09:10.037Z,3356
2017-07-20T09:10:19.054Z,3232
2017-07-20T09:11:28.608Z,3576
2017-07-20T09:12:38.216Z,4336
2017-07-20T09:13:47.531Z,4584
2017-07-20T09:14:57.078Z,5288
2017-07-20T09:16:06.981Z,6328
2017-07-20T09:17:16.266Z,7360
2017-07-20T09:18:25.821Z,7996
2017-07-20T09:19:35.058Z,8012
2017-07-20T09:20:44.287Z,7984
2017-07-20T09:21:53.603Z,7876
2017-07-20T09:23:03.498Z,8124
2017-07-20T09:24:12.746Z,8340
2017-07-20T09:25:21.660Z,7940
2017-07-20T09:26:30.929Z,8296
2017-07-20T09:27:40.480Z,7932
2017-07-20T09:28:49.414Z,7752
2017-07-20T09:29:58.655Z,7468
2017-07-20T09:31:08.231Z,7360
2017-07-20T09:32:17.449Z,7004
2017-07-20T09:33:26.757Z,6900
2017-07-20T09:34:35.967Z,5776
2017-07-20T09:35:45.186Z,4916
2017-07-20T09:36:54.409Z,5120
2017-07-20T09:38:04.919Z,5092
2017-07-20T09:39:14.339Z,5168
2017-07-20T09:40:24.520Z,5692
2017-07-20T09:41:33.729Z,4876
2017-07-20T09:42:42.951Z,4692
2017-07-20T09:43:52.482Z,4428
2017-07-20T09:45:01.805Z,4188
2017-07-20T09:46:10.701Z,5452
2017-07-20T09:47:19.936Z,6296
2017-07-20T09:48:28.828Z,5692
2017-07-20T09:49:37.715Z,6156
2017-07-20T09:50:47.011Z,6540
2017-07-20T09:51:56.288Z,6880
2017-07-20T09:53:05.563Z,7092
2017-07-20T09:54:14.520Z,7372
2017-07-20T09:55:23.445Z,6496
2017-07-20T09:56:32.967Z,5560
2017-07-20T09:57:42.219Z,5800
2017-07-20T09:58:51.116Z,6496
2017-07-20T10:00:00.995Z,5652
2017-07-20T10:01:10.550Z,4152
2017-07-20T10:02:20.514Z,3152
2017-07-20T10:03:29.402Z,3060
2017-07-20T10:04:38.936Z,2992
2017-07-20T10:05:47.825Z,3248
2017-07-20T10:06:58.336Z,5312
2017-07-20T10:08:08.412Z,6548
2017-07-20T10:09:17.952Z,5768
2017-07-20T10:10:27.177Z,5988
2017-07-20T10:11:36.716Z,7180
2017-07-20T10:12:45.605Z,6512
2017-07-20T10:13:55.016Z,5028
2017-07-20T10:15:04.879Z,4208
2017-07-20T10:16:14.418Z,4408
2017-07-20T10:17:24.273Z,5188
2017-07-20T10:18:33.162Z,5432
2017-07-20T10:19:42.849Z,5444
2017-07-20T10:20:52.059Z,5184
2017-07-20T10:22:00.950Z,4968
2017-07-20T10:23:10.496Z,5056
2017-07-20T10:24:20.030Z,5280
2017-07-20T10:25:29.389Z,5608
2017-07-20T10:26:38.605Z,6076
2017-07-20T10:27:48.163Z,6832
2017-07-20T10:28:58.028Z,7744
2017-07-20T10:30:07.888Z,8320
2017-07-20T10:31:17.722Z,8508
2017-07-20T10:32:27.258Z,8608
2017-07-20T10:33:36.805Z,8784
2017-07-20T10:34:46.662Z,8668
2017-07-20T10:35:55.874Z,8748
2017-07-20T10:37:05.514Z,9124
2017-07-20T10:38:15.380Z,9196
2017-07-20T10:39:24.590Z,8268
2017-07-20T10:40:34.451Z,8168
2017-07-20T10:41:43.670Z,7628
2017-07-20T10:42:53.035Z,7896
2017-07-20T10:44:02.248Z,7780
2017-07-20T10:45:11.132Z,5452
2017-07-20T10:46:20.345Z,3856
2017-07-20T10:47:29.882Z,5168
2017-07-20T10:48:39.576Z,5888
2017-07-20T10:49:48.790Z,5176
2017-07-20T10:50:58.004Z,4104
2017-07-20T10:52:07.866Z,4260
2017-07-20T10:53:18.050Z,4108
2017-07-20T10:54:28.108Z,2648
2017-07-20T10:55:37.641Z,2884
2017-07-20T10:56:47.196Z,5116
2017-07-20T10:57:56.130Z,5836
2017-07-20T10:59:05.746Z,5360
2017-07-20T11:00:14.850Z,5520
2017-07-20T11:01:24.392Z,6028
2017-07-20T11:02:33.282Z,6468
2017-07-20T11:03:42.494Z,7168
2017-07-20T11:04:52.029Z,7628
2017-07-20T11:06:01.721Z,7968
2017-07-20T11:07:10.939Z,8340
2017-07-20T11:08:20.497Z,9124
2017-07-20T11:09:30.030Z,9852
2017-07-20T11:10:39.572Z,10340
2017-07-20T11:11:48.666Z,10500
2017-07-20T11:12:57.634Z,10656
2017-07-20T11:14:07.339Z,10700
2017-07-20T11:15:16.381Z,10500
2017-07-20T11:16:25.618Z,10596
2017-07-20T11:17:34.733Z,9832
2017-07-20T11:18:43.635Z,8452
2017-07-20T11:19:52.915Z,7980
2017-07-20T11:21:02.194Z,6692
2017-07-20T11:22:11.778Z,6800
2017-07-20T11:23:21.014Z,7836
2017-07-20T11:24:30.042Z,9136
2017-07-20T11:25:39.043Z,9556
2017-07-20T11:26:48.363Z,8556
2017-07-20T11:27:57.374Z,7880
2017-07-20T11:29:06.599Z,5360
2017-07-20T11:30:15.569Z,4840
2017-07-20T11:31:25.645Z,6364
2017-07-20T11:32:35.841Z,6660
2017-07-20T11:33:45.086Z,6108
2017-07-20T11:34:54.685Z,7372
2017-07-20T11:36:04.271Z,6312
2017-07-20T11:37:13.267Z,4232
2017-07-20T11:38:22.524Z,3804
2017-07-20T11:39:31.800Z,4984
2017-07-20T11:40:41.214Z,3920
2017-07-20T11:41:50.117Z,3096
2017-07-20T11:43:00.027Z,2932
2017-07-20T11:44:09.944Z,2532
2017-07-20T11:45:19.231Z,2820
2017-07-20T11:46:28.780Z,3332
2017-07-20T11:47:38.552Z,3452
2017-07-20T11:48:47.668Z,2628
2017-07-20T11:49:56.662Z,2952
2017-07-20T11:51:05.762Z,3348
2017-07-20T11:52:15.383Z,2916
2017-07-20T11:53:24.699Z,1948
2017-07-20T11:54:34.277Z,2184
2017-07-20T11:55:44.238Z,2536
2017-07-20T11:56:53.875Z,2672
2017-07-20T11:58:03.221Z,3188
2017-07-20T11:59:12.850Z,3472
2017-07-20T12:00:22.507Z,3956
2017-07-20T12:01:32.466Z,4728
2017-07-20T12:02:42.122Z,6396
2017-07-20T12:03:53.066Z,7460
2017-07-20T12:05:02.379Z,11660
2017-07-20T12:06:11.698Z,12508
2017-07-20T12:07:21.581Z,11732
2017-07-20T12:08:30.950Z,9236
2017-07-20T12:09:40.388Z,6332
2017-07-20T12:10:50.523Z,4308
2017-07-20T12:12:00.026Z,3464
2017-07-20T12:13:09.011Z,3120
2017-07-20T12:14:18.647Z,2936
2017-07-20T12:15:28.086Z,3244
2017-07-20T12:16:37.749Z,3288
2017-07-20T12:17:47.403Z,3152
2017-07-20T12:18:57.110Z,4636
2017-07-20T12:20:06.076Z,4464
2017-07-20T12:21:15.224Z,3572
2017-07-20T12:22:24.697Z,2936
2017-07-20T12:23:33.705Z,2672
2017-07-20T12:24:42.685Z,2228
2017-07-20T12:25:52.676Z,1952
2017-07-20T12:27:01.851Z,1860
2017-07-20T12:28:11.265Z,1408
2017-07-20T12:29:20.296Z,1732
2017-07-20T12:30:30.056Z,2452
2017-07-20T12:31:39.846Z,1752
2017-07-20T12:32:49.355Z,2160
2017-07-20T12:33:58.945Z,2872
2017-07-20T12:35:08.232Z,2504
2017-07-20T12:36:17.870Z,2612
2017-07-20T12:37:27.102Z,5248
2017-07-20T12:38:36.488Z,5244
2017-07-20T12:39:45.490Z,5056
2017-07-20T12:40:54.952Z,5128
2017-07-20T12:42:04.607Z,5092
2017-07-20T12:43:13.971Z,4656
2017-07-20T12:44:23.685Z,4308
2017-07-20T12:45:33.579Z,4492
2017-07-20T12:46:42.494Z,4388
2017-07-20T12:47:52.149Z,3500
2017-07-20T12:49:01.205Z,3280
2017-07-20T12:50:10.758Z,5800
2017-07-20T12:51:20.289Z,8860
2017-07-20T12:52:30.106Z,11084
2017-07-20T12:53:39.316Z,14636
2017-07-20T12:54:49.081Z,10744
2017-07-20T12:55:59.059Z,11116
2017-07-20T12:57:09.106Z,10376
2017-07-20T12:58:18.085Z,8868
2017-07-20T12:59:27.696Z,9960
2017-07-20T13:00:37.041Z,10500
2017-07-20T13:01:46.218Z,10728
2017-07-20T13:02:55.885Z,11500
2017-07-20T13:04:05.310Z,12656
2017-07-20T13:05:14.289Z,10860
2017-07-20T13:06:23.344Z,11640
2017-07-20T13:07:33.006Z,11284
2017-07-20T13:08:42.116Z,16192
2017-07-20T13:09:51.477Z,15460
2017-07-20T13:11:00.907Z,14064
2017-07-20T13:12:11.080Z,12316
2017-07-20T13:13:20.687Z,11616
2017-07-20T13:14:30.634Z,9676
2017-07-20T13:15:39.920Z,8512
2017-07-20T13:16:49.631Z,5232
2017-07-20T13:17:58.563Z,4072
2017-07-20T13:19:08.428Z,4432
2017-07-20T13:20:19.800Z,4132
2017-07-20T13:21:29.792Z,2928
2017-07-20T13:22:39.414Z,3220
2017-07-20T13:23:48.632Z,4908
2017-07-20T13:24:58.370Z,7268
2017-07-20T13:26:08.279Z,10860
2017-07-20T13:27:17.228Z,13904
2017-07-20T13:28:26.854Z,17920
2017-07-20T13:29:36.648Z,12744
2017-07-20T13:30:46.762Z,9500
2017-07-20T13:31:55.702Z,20576
2017-07-20T13:33:05.322Z,17600
2017-07-20T13:34:14.665Z,12380
2017-07-20T13:35:23.697Z,5664
2017-07-20T13:36:33.084Z,4500
2017-07-20T13:37:42.032Z,3732
2017-07-20T13:38:51.904Z,2968
2017-07-20T13:40:00.859Z,3112
2017-07-20T13:41:10.188Z,2932
2017-07-20T13:42:19.918Z,4468
2017-07-20T13:43:29.227Z,12408
2017-07-20T13:44:38.504Z,16160
2017-07-20T13:45:48.128Z,9732
2017-07-20T13:46:57.490Z,6444
2017-07-20T13:48:07.206Z,6524
2017-07-20T13:49:17.069Z,6936
2017-07-20T13:50:26.851Z,7884
2017-07-20T13:51:36.037Z,10168
2017-07-20T13:52:45.373Z,8804
2017-07-20T13:53:54.825Z,5284
2017-07-20T13:55:04.884Z,6188
2017-07-20T13:56:14.609Z,10668
2017-07-20T13:57:24.465Z,18304
2017-07-20T13:58:34.627Z,13984
2017-07-20T13:59:45.513Z,13696
2017-07-20T14:00:55.009Z,10932
2017-07-20T14:02:04.773Z,11476
2017-07-20T14:03:14.433Z,11608
2017-07-20T14:04:23.392Z,6104
2017-07-20T14:05:32.991Z,6888
2017-07-20T14:06:42.893Z,9800
2017-07-20T14:07:51.921Z,17952
2017-07-20T14:09:01.051Z,13348
2017-07-20T14:10:10.593Z,7736
2017-07-20T14:11:21.281Z,5284
2017-07-20T14:12:30.253Z,4824
2017-07-20T14:13:39.819Z,5636
2017-07-20T14:14:49.745Z,6752
2017-07-20T14:15:59.347Z,7120
2017-07-20T14:17:09.566Z,6216
2017-07-20T14:18:18.815Z,6324
2017-07-20T14:19:27.746Z,9324
2017-07-20T14:20:36.769Z,35328
2017-07-20T14:21:45.816Z,10452
2017-07-20T14:22:55.130Z,7632
2017-07-20T14:24:04.654Z,8904
2017-07-20T14:25:14.051Z,21920
2017-07-20T14:26:23.048Z,43040
2017-07-20T14:27:32.379Z,14460
2017-07-20T14:28:41.710Z,12228
2017-07-20T14:29:51.356Z,11108
2017-07-20T14:31:01.022Z,23840
2017-07-20T14:32:10.692Z,22752
2017-07-20T14:33:20.033Z,47936
2017-07-20T14:34:29.994Z,17312
2017-07-20T14:35:39.034Z,11936
2017-07-20T14:36:48.318Z,13260
2017-07-20T14:37:57.389Z,19808
2017-07-20T14:39:06.571Z,37184
2017-07-20T14:40:15.838Z,44128
2017-07-20T14:41:25.780Z,19360
2017-07-20T14:42:35.482Z,46528
2017-07-20T14:43:45.099Z,22240
2017-07-20T14:44:54.751Z,5964
2017-07-20T14:46:04.050Z,4696
2017-07-20T14:47:13.315Z,7364
2017-07-20T14:48:22.668Z,10292
2017-07-20T14:49:31.655Z,43936
2017-07-20T14:50:41.785Z,15228
2017-07-20T14:51:50.889Z,6404
2017-07-20T14:53:00.335Z,4536
2017-07-20T14:54:10.021Z,4324
2017-07-20T14:55:19.266Z,4012
2017-07-20T14:56:28.582Z,4068
2017-07-20T14:57:37.752Z,5872
2017-07-20T14:58:47.424Z,7844
2017-07-20T14:59:56.405Z,5548
2017-07-20T15:01:05.375Z,6224
2017-07-20T15:02:15.425Z,9080
2017-07-20T15:03:24.749Z,26752
2017-07-20T15:04:34.417Z,20224
2017-07-20T15:05:44.109Z,41536
2017-07-20T15:06:53.076Z,13316
2017-07-20T15:08:02.651Z,36800
2017-07-20T15:09:11.981Z,14300
2017-07-20T15:10:21.586Z,37184
2017-07-20T15:11:31.188Z,34272
2017-07-20T15:12:40.739Z,10656
2017-07-20T15:13:50.647Z,9060
2017-07-20T15:15:00.365Z,10724
2017-07-20T15:16:09.325Z,12452
2017-07-20T15:17:19.215Z,8728
2017-07-20T15:18:28.564Z,21952
2017-07-20T15:19:37.865Z,19328
2017-07-20T15:20:47.158Z,25408
2017-07-20T15:21:56.486Z,16544
2017-07-20T15:23:05.789Z,14536
2017-07-20T15:24:15.088Z,15964
2017-07-20T15:25:24.692Z,23392
2017-07-20T15:26:34.203Z,23456
2017-07-20T15:27:43.523Z,23424
2017-07-20T15:28:53.783Z,8204
2017-07-20T15:30:03.064Z,6480
2017-07-20T15:31:12.663Z,4840
2017-07-20T15:32:23.354Z,4372
2017-07-20T15:33:32.670Z,4676
2017-07-20T15:34:42.268Z,2860
2017-07-20T15:35:51.878Z,2000
2017-07-20T15:37:01.130Z,1668
2017-07-20T15:38:10.481Z,1636
2017-07-20T15:39:19.442Z,1776
2017-07-20T15:40:28.386Z,1856
2017-07-20T15:41:37.308Z,2120
2017-07-20T15:42:46.591Z,2216
2017-07-20T15:43:56.422Z,1776
2017-07-20T15:45:05.349Z,1340